sensor_id;sensor_type;location;lat;lon;timestamp;P1;durP1;ratioP1;P2;durP2;ratioP2
60472;SDS011;46318;52.716;6.444;2023-05-28T00:00:41;18.55;;;7.65;;
60472;SDS011;46318;52.716;6.444;2023-05-28T00:03:09;17.63;;;7.97;;
60472;SDS011;46318;52.716;6.444;2023-05-28T00:05:35;18.05;;;8.20;;
60472;SDS011;46318;52.716;6.444;2023-05-28T00:08:01;18.52;;;8.02;;
60472;SDS011;46318;52.716;6.444;2023-05-28T00:10:27;18.15;;;7.57;;
60472;SDS011;46318;52.716;6.444;2023-05-28T00:12:53;16.75;;;7.85;;
60472;SDS011;46318;52.716;6.444;2023-05-28T00:15:19;15.23;;;7.45;;
60472;SDS011;46318;52.716;6.444;2023-05-28T00:17:45;15.52;;;7.88;;
60472;SDS011;46318;52.716;6.444;2023-05-28T00:20:11;19.60;;;7.72;;
60472;SDS011;46318;52.716;6.444;2023-05-28T00:22:37;18.30;;;7.90;;
60472;SDS011;46318;52.716;6.444;2023-05-28T00:25:03;19.30;;;8.45;;
60472;SDS011;46318;52.716;6.444;2023-05-28T00:27:30;13.25;;;7.50;;
60472;SDS011;46318;52.716;6.444;2023-05-28T00:29:56;16.48;;;7.63;;
60472;SDS011;46318;52.716;6.444;2023-05-28T00:32:22;15.05;;;8.10;;
60472;SDS011;46318;52.716;6.444;2023-05-28T00:34:48;21.15;;;7.80;;
60472;SDS011;46318;52.716;6.444;2023-05-28T00:37:14;22.58;;;8.18;;
60472;SDS011;46318;52.716;6.444;2023-05-28T00:39:40;18.23;;;8.10;;
60472;SDS011;46318;52.716;6.444;2023-05-28T00:42:06;16.95;;;8.25;;
60472;SDS011;46318;52.716;6.444;2023-05-28T00:44:34;21.02;;;8.10;;
60472;SDS011;46318;52.716;6.444;2023-05-28T00:46:59;17.42;;;8.05;;
60472;SDS011;46318;52.716;6.444;2023-05-28T00:49:27;20.85;;;8.18;;
60472;SDS011;46318;52.716;6.444;2023-05-28T00:51:54;20.48;;;7.68;;
60472;SDS011;46318;52.716;6.444;2023-05-28T00:54:21;15.52;;;7.60;;
60472;SDS011;46318;52.716;6.444;2023-05-28T00:56:48;16.00;;;8.13;;
60472;SDS011;46318;52.716;6.444;2023-05-28T00:59:16;18.63;;;7.90;;
60472;SDS011;46318;52.716;6.444;2023-05-28T01:01:43;17.13;;;7.82;;
60472;SDS011;46318;52.716;6.444;2023-05-28T01:04:10;16.75;;;8.05;;
60472;SDS011;46318;52.716;6.444;2023-05-28T01:06:36;20.52;;;7.82;;
60472;SDS011;46318;52.716;6.444;2023-05-28T01:09:07;16.75;;;7.32;;
60472;SDS011;46318;52.716;6.444;2023-05-28T01:11:33;19.13;;;7.60;;
60472;SDS011;46318;52.716;6.444;2023-05-28T01:14:00;17.65;;;7.60;;
60472;SDS011;46318;52.716;6.444;2023-05-28T01:16:28;17.42;;;7.90;;
60472;SDS011;46318;52.716;6.444;2023-05-28T01:18:55;16.17;;;7.40;;
60472;SDS011;46318;52.716;6.444;2023-05-28T01:21:22;16.63;;;7.93;;
60472;SDS011;46318;52.716;6.444;2023-05-28T01:23:50;18.40;;;7.82;;
60472;SDS011;46318;52.716;6.444;2023-05-28T01:26:17;17.38;;;7.90;;
60472;SDS011;46318;52.716;6.444;2023-05-28T01:28:46;18.38;;;8.00;;
60472;SDS011;46318;52.716;6.444;2023-05-28T01:31:14;20.45;;;8.63;;
60472;SDS011;46318;52.716;6.444;2023-05-28T01:33:41;17.90;;;7.90;;
60472;SDS011;46318;52.716;6.444;2023-05-28T01:36:11;16.77;;;7.78;;
60472;SDS011;46318;52.716;6.444;2023-05-28T01:38:44;18.00;;;7.93;;
60472;SDS011;46318;52.716;6.444;2023-05-28T01:41:12;20.23;;;8.50;;
60472;SDS011;46318;52.716;6.444;2023-05-28T01:43:40;15.38;;;7.50;;
60472;SDS011;46318;52.716;6.444;2023-05-28T01:46:08;17.85;;;7.38;;
60472;SDS011;46318;52.716;6.444;2023-05-28T01:48:34;18.35;;;8.10;;
60472;SDS011;46318;52.716;6.444;2023-05-28T01:51:01;15.57;;;7.93;;
60472;SDS011;46318;52.716;6.444;2023-05-28T01:53:27;16.92;;;8.10;;
60472;SDS011;46318;52.716;6.444;2023-05-28T01:55:53;14.35;;;7.82;;
60472;SDS011;46318;52.716;6.444;2023-05-28T01:58:21;20.02;;;8.45;;
60472;SDS011;46318;52.716;6.444;2023-05-28T02:00:56;18.58;;;8.63;;
60472;SDS011;46318;52.716;6.444;2023-05-28T02:03:53;18.92;;;8.18;;
60472;SDS011;46318;52.716;6.444;2023-05-28T02:06:19;17.50;;;8.20;;
60472;SDS011;46318;52.716;6.444;2023-05-28T02:08:46;19.30;;;8.07;;
60472;SDS011;46318;52.716;6.444;2023-05-28T02:11:12;15.13;;;7.75;;
60472;SDS011;46318;52.716;6.444;2023-05-28T02:13:38;17.50;;;7.75;;
60472;SDS011;46318;52.716;6.444;2023-05-28T02:16:05;15.48;;;8.30;;
60472;SDS011;46318;52.716;6.444;2023-05-28T02:18:31;19.00;;;8.35;;
60472;SDS011;46318;52.716;6.444;2023-05-28T02:21:01;16.77;;;8.02;;
60472;SDS011;46318;52.716;6.444;2023-05-28T02:23:28;14.82;;;8.35;;
60472;SDS011;46318;52.716;6.444;2023-05-28T02:25:54;21.80;;;8.27;;
60472;SDS011;46318;52.716;6.444;2023-05-28T02:28:20;15.57;;;7.82;;
60472;SDS011;46318;52.716;6.444;2023-05-28T02:30:46;22.52;;;9.27;;
60472;SDS011;46318;52.716;6.444;2023-05-28T02:33:12;16.60;;;8.13;;
60472;SDS011;46318;52.716;6.444;2023-05-28T02:35:37;15.52;;;8.05;;
60472;SDS011;46318;52.716;6.444;2023-05-28T02:38:03;18.25;;;8.82;;
60472;SDS011;46318;52.716;6.444;2023-05-28T02:40:30;19.63;;;8.50;;
60472;SDS011;46318;52.716;6.444;2023-05-28T02:42:55;16.05;;;7.93;;
60472;SDS011;46318;52.716;6.444;2023-05-28T02:45:21;14.63;;;7.38;;
60472;SDS011;46318;52.716;6.444;2023-05-28T02:47:47;16.95;;;8.45;;
60472;SDS011;46318;52.716;6.444;2023-05-28T02:50:13;14.27;;;8.50;;
60472;SDS011;46318;52.716;6.444;2023-05-28T02:52:39;15.18;;;8.50;;
60472;SDS011;46318;52.716;6.444;2023-05-28T02:55:05;16.73;;;8.93;;
60472;SDS011;46318;52.716;6.444;2023-05-28T02:57:32;20.77;;;8.60;;
60472;SDS011;46318;52.716;6.444;2023-05-28T02:59:58;14.88;;;8.13;;
60472;SDS011;46318;52.716;6.444;2023-05-28T03:02:24;17.85;;;8.18;;
60472;SDS011;46318;52.716;6.444;2023-05-28T03:04:50;17.17;;;7.75;;
60472;SDS011;46318;52.716;6.444;2023-05-28T03:07:18;21.25;;;9.00;;
60472;SDS011;46318;52.716;6.444;2023-05-28T03:09:44;18.38;;;8.50;;
60472;SDS011;46318;52.716;6.444;2023-05-28T03:12:10;17.58;;;9.00;;
60472;SDS011;46318;52.716;6.444;2023-05-28T03:14:36;13.63;;;8.40;;
60472;SDS011;46318;52.716;6.444;2023-05-28T03:17:02;19.05;;;9.13;;
60472;SDS011;46318;52.716;6.444;2023-05-28T03:19:28;17.30;;;8.32;;
60472;SDS011;46318;52.716;6.444;2023-05-28T03:21:54;16.83;;;8.63;;
60472;SDS011;46318;52.716;6.444;2023-05-28T03:24:20;16.52;;;8.63;;
60472;SDS011;46318;52.716;6.444;2023-05-28T03:26:46;16.08;;;8.73;;
60472;SDS011;46318;52.716;6.444;2023-05-28T03:29:12;18.85;;;8.65;;
60472;SDS011;46318;52.716;6.444;2023-05-28T03:31:44;18.00;;;8.18;;
60472;SDS011;46318;52.716;6.444;2023-05-28T03:34:11;16.40;;;8.70;;
60472;SDS011;46318;52.716;6.444;2023-05-28T03:36:37;17.75;;;8.90;;
60472;SDS011;46318;52.716;6.444;2023-05-28T03:39:07;18.98;;;8.50;;
60472;SDS011;46318;52.716;6.444;2023-05-28T03:41:34;19.48;;;8.82;;
60472;SDS011;46318;52.716;6.444;2023-05-28T03:44:03;18.50;;;8.57;;
60472;SDS011;46318;52.716;6.444;2023-05-28T03:46:30;23.88;;;9.10;;
60472;SDS011;46318;52.716;6.444;2023-05-28T03:48:56;18.67;;;7.97;;
60472;SDS011;46318;52.716;6.444;2023-05-28T03:51:22;20.95;;;8.68;;
60472;SDS011;46318;52.716;6.444;2023-05-28T03:53:50;16.58;;;8.48;;
60472;SDS011;46318;52.716;6.444;2023-05-28T03:56:16;19.23;;;8.38;;
60472;SDS011;46318;52.716;6.444;2023-05-28T03:58:43;18.50;;;8.05;;
60472;SDS011;46318;52.716;6.444;2023-05-28T04:01:09;14.90;;;7.88;;
60472;SDS011;46318;52.716;6.444;2023-05-28T04:03:35;19.80;;;8.38;;
60472;SDS011;46318;52.716;6.444;2023-05-28T04:06:01;17.55;;;8.50;;
60472;SDS011;46318;52.716;6.444;2023-05-28T04:08:28;15.60;;;7.57;;
60472;SDS011;46318;52.716;6.444;2023-05-28T04:10:55;15.40;;;8.13;;
60472;SDS011;46318;52.716;6.444;2023-05-28T04:13:21;14.68;;;7.90;;
60472;SDS011;46318;52.716;6.444;2023-05-28T04:15:47;18.80;;;7.70;;
60472;SDS011;46318;52.716;6.444;2023-05-28T04:18:13;17.27;;;7.97;;
60472;SDS011;46318;52.716;6.444;2023-05-28T04:20:39;17.10;;;7.80;;
60472;SDS011;46318;52.716;6.444;2023-05-28T04:23:06;21.20;;;8.85;;
60472;SDS011;46318;52.716;6.444;2023-05-28T04:25:33;19.60;;;8.10;;
60472;SDS011;46318;52.716;6.444;2023-05-28T04:27:59;19.38;;;8.23;;
60472;SDS011;46318;52.716;6.444;2023-05-28T04:30:27;19.33;;;8.00;;
60472;SDS011;46318;52.716;6.444;2023-05-28T04:32:53;17.92;;;8.02;;
60472;SDS011;46318;52.716;6.444;2023-05-28T04:35:20;16.77;;;8.23;;
60472;SDS011;46318;52.716;6.444;2023-05-28T04:37:46;17.90;;;8.23;;
60472;SDS011;46318;52.716;6.444;2023-05-28T04:40:16;17.67;;;7.78;;
60472;SDS011;46318;52.716;6.444;2023-05-28T04:42:42;18.88;;;8.05;;
60472;SDS011;46318;52.716;6.444;2023-05-28T04:45:08;17.55;;;7.97;;
60472;SDS011;46318;52.716;6.444;2023-05-28T04:47:35;17.23;;;8.00;;
60472;SDS011;46318;52.716;6.444;2023-05-28T04:50:03;19.90;;;8.50;;
60472;SDS011;46318;52.716;6.444;2023-05-28T04:52:30;14.93;;;8.10;;
60472;SDS011;46318;52.716;6.444;2023-05-28T04:54:58;17.55;;;8.20;;
60472;SDS011;46318;52.716;6.444;2023-05-28T04:57:24;17.50;;;8.38;;
60472;SDS011;46318;52.716;6.444;2023-05-28T04:59:51;18.35;;;8.57;;
60472;SDS011;46318;52.716;6.444;2023-05-28T05:02:16;18.60;;;8.52;;
60472;SDS011;46318;52.716;6.444;2023-05-28T05:04:44;18.17;;;8.20;;
60472;SDS011;46318;52.716;6.444;2023-05-28T05:07:13;18.05;;;8.77;;
60472;SDS011;46318;52.716;6.444;2023-05-28T05:09:40;16.02;;;8.13;;
60472;SDS011;46318;52.716;6.444;2023-05-28T05:12:06;16.98;;;9.10;;
60472;SDS011;46318;52.716;6.444;2023-05-28T05:14:33;17.45;;;9.02;;
60472;SDS011;46318;52.716;6.444;2023-05-28T05:17:00;20.95;;;8.82;;
60472;SDS011;46318;52.716;6.444;2023-05-28T05:19:27;20.13;;;9.50;;
60472;SDS011;46318;52.716;6.444;2023-05-28T05:21:53;18.30;;;8.35;;
60472;SDS011;46318;52.716;6.444;2023-05-28T05:24:19;22.50;;;9.35;;
60472;SDS011;46318;52.716;6.444;2023-05-28T05:26:47;16.80;;;9.23;;
60472;SDS011;46318;52.716;6.444;2023-05-28T05:29:13;17.77;;;9.30;;
60472;SDS011;46318;52.716;6.444;2023-05-28T05:31:39;19.73;;;9.02;;
60472;SDS011;46318;52.716;6.444;2023-05-28T05:34:05;19.00;;;9.27;;
60472;SDS011;46318;52.716;6.444;2023-05-28T05:36:31;23.13;;;8.75;;
60472;SDS011;46318;52.716;6.444;2023-05-28T05:38:58;14.75;;;8.82;;
60472;SDS011;46318;52.716;6.444;2023-05-28T05:41:23;16.77;;;9.60;;
60472;SDS011;46318;52.716;6.444;2023-05-28T05:43:50;18.60;;;8.77;;
60472;SDS011;46318;52.716;6.444;2023-05-28T05:46:16;17.63;;;8.88;;
60472;SDS011;46318;52.716;6.444;2023-05-28T05:48:42;17.50;;;9.60;;
60472;SDS011;46318;52.716;6.444;2023-05-28T05:51:08;17.02;;;8.85;;
60472;SDS011;46318;52.716;6.444;2023-05-28T05:53:39;18.05;;;8.93;;
60472;SDS011;46318;52.716;6.444;2023-05-28T05:56:09;18.25;;;8.57;;
60472;SDS011;46318;52.716;6.444;2023-05-28T05:58:35;18.27;;;8.73;;
60472;SDS011;46318;52.716;6.444;2023-05-28T06:01:02;15.93;;;9.07;;
60472;SDS011;46318;52.716;6.444;2023-05-28T06:03:30;20.50;;;9.50;;
60472;SDS011;46318;52.716;6.444;2023-05-28T06:05:56;17.55;;;8.60;;
60472;SDS011;46318;52.716;6.444;2023-05-28T06:08:22;17.65;;;7.75;;
60472;SDS011;46318;52.716;6.444;2023-05-28T06:10:48;17.55;;;8.93;;
60472;SDS011;46318;52.716;6.444;2023-05-28T06:13:14;16.33;;;8.15;;
60472;SDS011;46318;52.716;6.444;2023-05-28T06:15:40;14.57;;;7.88;;
60472;SDS011;46318;52.716;6.444;2023-05-28T06:18:06;17.50;;;8.25;;
60472;SDS011;46318;52.716;6.444;2023-05-28T06:20:32;16.02;;;7.93;;
60472;SDS011;46318;52.716;6.444;2023-05-28T06:22:58;13.80;;;6.65;;
60472;SDS011;46318;52.716;6.444;2023-05-28T06:25:24;15.82;;;6.85;;
60472;SDS011;46318;52.716;6.444;2023-05-28T06:27:50;16.27;;;7.57;;
60472;SDS011;46318;52.716;6.444;2023-05-28T06:30:16;15.07;;;6.95;;
60472;SDS011;46318;52.716;6.444;2023-05-28T06:32:42;16.45;;;7.07;;
60472;SDS011;46318;52.716;6.444;2023-05-28T06:35:08;16.15;;;7.28;;
60472;SDS011;46318;52.716;6.444;2023-05-28T06:37:34;16.60;;;7.97;;
60472;SDS011;46318;52.716;6.444;2023-05-28T06:40:00;15.77;;;7.07;;
60472;SDS011;46318;52.716;6.444;2023-05-28T06:42:29;16.95;;;7.07;;
60472;SDS011;46318;52.716;6.444;2023-05-28T06:44:54;15.35;;;7.78;;
60472;SDS011;46318;52.716;6.444;2023-05-28T06:47:20;12.35;;;7.28;;
60472;SDS011;46318;52.716;6.444;2023-05-28T06:49:46;16.70;;;6.95;;
60472;SDS011;46318;52.716;6.444;2023-05-28T06:52:12;14.27;;;6.53;;
60472;SDS011;46318;52.716;6.444;2023-05-28T06:54:38;15.18;;;7.30;;
60472;SDS011;46318;52.716;6.444;2023-05-28T06:57:04;12.57;;;6.47;;
60472;SDS011;46318;52.716;6.444;2023-05-28T06:59:31;15.48;;;7.40;;
60472;SDS011;46318;52.716;6.444;2023-05-28T07:01:57;14.60;;;7.00;;
60472;SDS011;46318;52.716;6.444;2023-05-28T07:04:23;16.08;;;7.32;;
60472;SDS011;46318;52.716;6.444;2023-05-28T07:06:49;12.57;;;6.65;;
60472;SDS011;46318;52.716;6.444;2023-05-28T07:09:14;13.48;;;6.88;;
60472;SDS011;46318;52.716;6.444;2023-05-28T07:11:40;14.65;;;7.22;;
60472;SDS011;46318;52.716;6.444;2023-05-28T07:14:06;18.23;;;6.82;;
60472;SDS011;46318;52.716;6.444;2023-05-28T07:16:32;12.05;;;6.18;;
60472;SDS011;46318;52.716;6.444;2023-05-28T07:18:58;14.15;;;6.32;;
60472;SDS011;46318;52.716;6.444;2023-05-28T07:21:24;15.77;;;6.45;;
60472;SDS011;46318;52.716;6.444;2023-05-28T07:23:50;14.23;;;6.07;;
60472;SDS011;46318;52.716;6.444;2023-05-28T07:26:15;12.13;;;6.25;;
60472;SDS011;46318;52.716;6.444;2023-05-28T07:28:41;12.57;;;5.93;;
60472;SDS011;46318;52.716;6.444;2023-05-28T07:31:08;12.20;;;6.05;;
60472;SDS011;46318;52.716;6.444;2023-05-28T07:33:34;15.23;;;6.63;;
60472;SDS011;46318;52.716;6.444;2023-05-28T07:36:01;13.38;;;6.47;;
60472;SDS011;46318;52.716;6.444;2023-05-28T07:38:26;14.00;;;6.22;;
60472;SDS011;46318;52.716;6.444;2023-05-28T07:40:52;14.88;;;6.05;;
60472;SDS011;46318;52.716;6.444;2023-05-28T07:43:18;15.48;;;6.82;;
60472;SDS011;46318;52.716;6.444;2023-05-28T07:45:44;15.93;;;6.85;;
60472;SDS011;46318;52.716;6.444;2023-05-28T07:48:10;13.15;;;6.40;;
60472;SDS011;46318;52.716;6.444;2023-05-28T07:50:36;11.77;;;6.07;;
60472;SDS011;46318;52.716;6.444;2023-05-28T07:53:03;13.02;;;6.28;;
60472;SDS011;46318;52.716;6.444;2023-05-28T07:55:30;13.88;;;6.57;;
60472;SDS011;46318;52.716;6.444;2023-05-28T07:57:56;12.63;;;6.00;;
60472;SDS011;46318;52.716;6.444;2023-05-28T08:00:24;17.45;;;7.22;;
60472;SDS011;46318;52.716;6.444;2023-05-28T08:02:51;9.43;;;5.10;;
60472;SDS011;46318;52.716;6.444;2023-05-28T08:05:17;13.38;;;6.00;;
60472;SDS011;46318;52.716;6.444;2023-05-28T08:07:43;14.40;;;6.47;;
60472;SDS011;46318;52.716;6.444;2023-05-28T08:10:10;13.80;;;6.38;;
60472;SDS011;46318;52.716;6.444;2023-05-28T08:12:35;12.95;;;6.35;;
60472;SDS011;46318;52.716;6.444;2023-05-28T08:15:02;13.63;;;5.90;;
60472;SDS011;46318;52.716;6.444;2023-05-28T08:17:29;12.98;;;6.75;;
60472;SDS011;46318;52.716;6.444;2023-05-28T08:19:59;14.25;;;6.95;;
60472;SDS011;46318;52.716;6.444;2023-05-28T08:22:25;15.35;;;6.53;;
60472;SDS011;46318;52.716;6.444;2023-05-28T08:24:51;14.27;;;7.38;;
60472;SDS011;46318;52.716;6.444;2023-05-28T08:27:16;17.27;;;6.13;;
60472;SDS011;46318;52.716;6.444;2023-05-28T08:29:42;12.70;;;6.32;;
60472;SDS011;46318;52.716;6.444;2023-05-28T08:32:08;15.10;;;7.45;;
60472;SDS011;46318;52.716;6.444;2023-05-28T08:34:34;12.32;;;6.57;;
60472;SDS011;46318;52.716;6.444;2023-05-28T08:37:03;14.93;;;6.53;;
60472;SDS011;46318;52.716;6.444;2023-05-28T08:39:29;13.88;;;6.82;;
60472;SDS011;46318;52.716;6.444;2023-05-28T08:41:56;15.50;;;7.22;;
60472;SDS011;46318;52.716;6.444;2023-05-28T08:44:22;11.45;;;6.32;;
60472;SDS011;46318;52.716;6.444;2023-05-28T08:46:48;13.43;;;6.63;;
60472;SDS011;46318;52.716;6.444;2023-05-28T08:49:17;13.27;;;6.47;;
60472;SDS011;46318;52.716;6.444;2023-05-28T08:51:44;12.82;;;6.75;;
60472;SDS011;46318;52.716;6.444;2023-05-28T08:54:14;14.13;;;6.95;;
60472;SDS011;46318;52.716;6.444;2023-05-28T08:56:40;17.27;;;7.75;;
60472;SDS011;46318;52.716;6.444;2023-05-28T08:59:07;13.90;;;6.72;;
60472;SDS011;46318;52.716;6.444;2023-05-28T09:01:36;13.00;;;6.70;;
60472;SDS011;46318;52.716;6.444;2023-05-28T09:04:03;14.77;;;6.97;;
60472;SDS011;46318;52.716;6.444;2023-05-28T09:06:30;17.27;;;7.95;;
60472;SDS011;46318;52.716;6.444;2023-05-28T09:08:56;14.55;;;7.00;;
60472;SDS011;46318;52.716;6.444;2023-05-28T09:11:23;15.80;;;7.15;;
60472;SDS011;46318;52.716;6.444;2023-05-28T09:13:49;14.85;;;7.30;;
60472;SDS011;46318;52.716;6.444;2023-05-28T09:16:24;13.32;;;7.38;;
60472;SDS011;46318;52.716;6.444;2023-05-28T09:18:50;15.82;;;7.43;;
60472;SDS011;46318;52.716;6.444;2023-05-28T09:21:27;11.77;;;7.75;;
60472;SDS011;46318;52.716;6.444;2023-05-28T09:23:53;14.35;;;8.30;;
60472;SDS011;46318;52.716;6.444;2023-05-28T09:26:19;12.93;;;7.40;;
60472;SDS011;46318;52.716;6.444;2023-05-28T09:28:46;12.68;;;6.95;;
60472;SDS011;46318;52.716;6.444;2023-05-28T09:31:14;13.45;;;7.28;;
60472;SDS011;46318;52.716;6.444;2023-05-28T09:33:46;11.30;;;6.75;;
60472;SDS011;46318;52.716;6.444;2023-05-28T09:36:16;13.57;;;7.00;;
60472;SDS011;46318;52.716;6.444;2023-05-28T09:38:42;13.52;;;7.40;;
60472;SDS011;46318;52.716;6.444;2023-05-28T09:41:18;12.82;;;7.68;;
60472;SDS011;46318;52.716;6.444;2023-05-28T09:43:46;30.38;;;8.32;;
60472;SDS011;46318;52.716;6.444;2023-05-28T09:46:26;15.10;;;6.93;;
60472;SDS011;46318;52.716;6.444;2023-05-28T09:49:00;13.93;;;6.85;;
60472;SDS011;46318;52.716;6.444;2023-05-28T09:51:29;12.27;;;7.07;;
60472;SDS011;46318;52.716;6.444;2023-05-28T09:53:57;10.20;;;6.57;;
60472;SDS011;46318;52.716;6.444;2023-05-28T09:58:56;11.65;;;6.93;;
60472;SDS011;46318;52.716;6.444;2023-05-28T10:01:25;13.32;;;6.95;;
60472;SDS011;46318;52.716;6.444;2023-05-28T10:04:09;11.60;;;6.75;;
60472;SDS011;46318;52.716;6.444;2023-05-28T10:06:39;11.63;;;6.63;;
60472;SDS011;46318;52.716;6.444;2023-05-28T10:09:08;10.32;;;6.32;;
60472;SDS011;46318;52.716;6.444;2023-05-28T10:11:44;13.18;;;7.18;;
60472;SDS011;46318;52.716;6.444;2023-05-28T10:16:50;9.98;;;6.22;;
60472;SDS011;46318;52.716;6.444;2023-05-28T10:19:16;9.57;;;5.72;;
60472;SDS011;46318;52.716;6.444;2023-05-28T10:21:42;10.75;;;6.20;;
60472;SDS011;46318;52.716;6.444;2023-05-28T10:24:14;11.57;;;6.70;;
60472;SDS011;46318;52.716;6.444;2023-05-28T10:26:41;11.30;;;5.70;;
60472;SDS011;46318;52.716;6.444;2023-05-28T10:29:07;13.40;;;6.05;;
60472;SDS011;46318;52.716;6.444;2023-05-28T10:31:33;13.48;;;6.35;;
60472;SDS011;46318;52.716;6.444;2023-05-28T10:33:59;11.68;;;5.97;;
60472;SDS011;46318;52.716;6.444;2023-05-28T10:36:25;10.57;;;5.72;;
60472;SDS011;46318;52.716;6.444;2023-05-28T10:41:17;12.88;;;5.43;;
60472;SDS011;46318;52.716;6.444;2023-05-28T10:43:47;11.60;;;5.35;;
60472;SDS011;46318;52.716;6.444;2023-05-28T10:51:55;9.43;;;5.28;;
60472;SDS011;46318;52.716;6.444;2023-05-28T10:57:06;7.38;;;5.28;;
60472;SDS011;46318;52.716;6.444;2023-05-28T11:04:49;11.95;;;6.53;;
60472;SDS011;46318;52.716;6.444;2023-05-28T11:07:23;12.07;;;5.88;;
60472;SDS011;46318;52.716;6.444;2023-05-28T11:10:14;8.27;;;5.45;;
60472;SDS011;46318;52.716;6.444;2023-05-28T11:12:41;9.80;;;5.55;;
60472;SDS011;46318;52.716;6.444;2023-05-28T11:15:10;10.30;;;5.65;;
60472;SDS011;46318;52.716;6.444;2023-05-28T11:17:38;8.13;;;5.18;;
60472;SDS011;46318;52.716;6.444;2023-05-28T11:20:23;11.48;;;5.57;;
60472;SDS011;46318;52.716;6.444;2023-05-28T11:22:51;9.88;;;5.57;;
60472;SDS011;46318;52.716;6.444;2023-05-28T11:25:18;12.82;;;6.28;;
60472;SDS011;46318;52.716;6.444;2023-05-28T11:27:51;8.85;;;5.82;;
60472;SDS011;46318;52.716;6.444;2023-05-28T11:30:18;10.80;;;5.90;;
60472;SDS011;46318;52.716;6.444;2023-05-28T11:32:47;8.27;;;5.85;;
60472;SDS011;46318;52.716;6.444;2023-05-28T11:35:14;9.23;;;5.85;;
60472;SDS011;46318;52.716;6.444;2023-05-28T11:37:41;10.77;;;6.22;;
60472;SDS011;46318;52.716;6.444;2023-05-28T11:40:09;11.95;;;6.40;;
60472;SDS011;46318;52.716;6.444;2023-05-28T11:42:38;7.95;;;5.43;;
60472;SDS011;46318;52.716;6.444;2023-05-28T11:45:06;9.43;;;5.82;;
60472;SDS011;46318;52.716;6.444;2023-05-28T11:47:35;9.05;;;5.85;;
60472;SDS011;46318;52.716;6.444;2023-05-28T11:50:08;10.13;;;5.55;;
60472;SDS011;46318;52.716;6.444;2023-05-28T11:52:37;8.68;;;5.50;;
60472;SDS011;46318;52.716;6.444;2023-05-28T11:55:03;8.95;;;5.18;;
60472;SDS011;46318;52.716;6.444;2023-05-28T11:57:31;6.88;;;5.00;;
60472;SDS011;46318;52.716;6.444;2023-05-28T12:00:08;8.93;;;4.88;;
60472;SDS011;46318;52.716;6.444;2023-05-28T12:02:51;7.50;;;5.05;;
60472;SDS011;46318;52.716;6.444;2023-05-28T12:05:19;7.45;;;4.95;;
60472;SDS011;46318;52.716;6.444;2023-05-28T12:07:46;6.97;;;4.43;;
60472;SDS011;46318;52.716;6.444;2023-05-28T12:10:15;8.38;;;5.28;;
60472;SDS011;46318;52.716;6.444;2023-05-28T12:12:50;7.28;;;4.90;;
60472;SDS011;46318;52.716;6.444;2023-05-28T12:15:21;8.77;;;5.35;;
60472;SDS011;46318;52.716;6.444;2023-05-28T12:17:53;5.78;;;5.15;;
60472;SDS011;46318;52.716;6.444;2023-05-28T12:20:29;6.97;;;4.97;;
60472;SDS011;46318;52.716;6.444;2023-05-28T12:23:23;6.60;;;5.32;;
60472;SDS011;46318;52.716;6.444;2023-05-28T12:25:49;7.60;;;4.93;;
60472;SDS011;46318;52.716;6.444;2023-05-28T12:28:16;7.03;;;5.10;;
60472;SDS011;46318;52.716;6.444;2023-05-28T12:30:44;5.68;;;5.00;;
60472;SDS011;46318;52.716;6.444;2023-05-28T12:33:15;5.53;;;5.00;;
60472;SDS011;46318;52.716;6.444;2023-05-28T12:35:42;7.03;;;5.00;;
60472;SDS011;46318;52.716;6.444;2023-05-28T12:38:08;5.18;;;4.50;;
60472;SDS011;46318;52.716;6.444;2023-05-28T12:40:34;7.32;;;4.35;;
60472;SDS011;46318;52.716;6.444;2023-05-28T12:43:00;6.47;;;4.90;;
60472;SDS011;46318;52.716;6.444;2023-05-28T12:45:27;6.03;;;5.10;;
60472;SDS011;46318;52.716;6.444;2023-05-28T12:47:53;6.47;;;5.38;;
60472;SDS011;46318;52.716;6.444;2023-05-28T12:50:19;7.25;;;4.60;;
60472;SDS011;46318;52.716;6.444;2023-05-28T12:52:46;7.65;;;4.97;;
60472;SDS011;46318;52.716;6.444;2023-05-28T12:55:11;5.82;;;5.18;;
60472;SDS011;46318;52.716;6.444;2023-05-28T12:57:37;7.78;;;5.50;;
60472;SDS011;46318;52.716;6.444;2023-05-28T13:00:04;6.82;;;5.32;;
60472;SDS011;46318;52.716;6.444;2023-05-28T13:02:33;5.22;;;4.70;;
60472;SDS011;46318;52.716;6.444;2023-05-28T13:04:59;5.65;;;4.95;;
60472;SDS011;46318;52.716;6.444;2023-05-28T13:07:25;6.22;;;4.97;;
60472;SDS011;46318;52.716;6.444;2023-05-28T13:09:51;6.22;;;5.22;;
60472;SDS011;46318;52.716;6.444;2023-05-28T13:12:16;7.57;;;5.97;;
60472;SDS011;46318;52.716;6.444;2023-05-28T13:14:42;6.45;;;5.50;;
60472;SDS011;46318;52.716;6.444;2023-05-28T13:17:08;8.20;;;5.63;;
60472;SDS011;46318;52.716;6.444;2023-05-28T13:19:34;6.80;;;5.78;;
60472;SDS011;46318;52.716;6.444;2023-05-28T13:22:00;7.00;;;5.32;;
60472;SDS011;46318;52.716;6.444;2023-05-28T13:24:26;6.85;;;5.10;;
60472;SDS011;46318;52.716;6.444;2023-05-28T13:26:51;7.20;;;5.53;;
60472;SDS011;46318;52.716;6.444;2023-05-28T13:29:17;7.32;;;5.60;;
60472;SDS011;46318;52.716;6.444;2023-05-28T13:31:43;7.18;;;4.97;;
60472;SDS011;46318;52.716;6.444;2023-05-28T13:34:09;5.25;;;4.75;;
60472;SDS011;46318;52.716;6.444;2023-05-28T13:36:35;7.25;;;4.90;;
60472;SDS011;46318;52.716;6.444;2023-05-28T13:39:01;7.05;;;4.95;;
60472;SDS011;46318;52.716;6.444;2023-05-28T13:41:29;7.70;;;4.80;;
60472;SDS011;46318;52.716;6.444;2023-05-28T13:43:55;5.32;;;4.82;;
60472;SDS011;46318;52.716;6.444;2023-05-28T13:46:22;5.05;;;4.53;;
60472;SDS011;46318;52.716;6.444;2023-05-28T13:48:52;6.35;;;4.80;;
60472;SDS011;46318;52.716;6.444;2023-05-28T13:51:18;6.80;;;4.22;;
60472;SDS011;46318;52.716;6.444;2023-05-28T13:53:45;5.53;;;4.07;;
60472;SDS011;46318;52.716;6.444;2023-05-28T13:56:15;5.75;;;3.95;;
60472;SDS011;46318;52.716;6.444;2023-05-28T13:58:41;6.38;;;4.18;;
60472;SDS011;46318;52.716;6.444;2023-05-28T14:01:07;7.07;;;3.80;;
60472;SDS011;46318;52.716;6.444;2023-05-28T14:03:33;7.40;;;3.50;;
60472;SDS011;46318;52.716;6.444;2023-05-28T14:05:59;6.35;;;3.90;;
60472;SDS011;46318;52.716;6.444;2023-05-28T14:08:25;5.60;;;3.67;;
60472;SDS011;46318;52.716;6.444;2023-05-28T14:10:51;5.45;;;3.67;;
60472;SDS011;46318;52.716;6.444;2023-05-28T14:13:17;7.05;;;3.72;;
60472;SDS011;46318;52.716;6.444;2023-05-28T14:15:43;8.18;;;3.80;;
60472;SDS011;46318;52.716;6.444;2023-05-28T14:18:10;5.75;;;3.35;;
60472;SDS011;46318;52.716;6.444;2023-05-28T14:20:36;8.82;;;3.95;;
60472;SDS011;46318;52.716;6.444;2023-05-28T14:23:02;7.22;;;3.97;;
60472;SDS011;46318;52.716;6.444;2023-05-28T14:25:29;8.88;;;3.88;;
60472;SDS011;46318;52.716;6.444;2023-05-28T14:27:55;7.20;;;3.42;;
60472;SDS011;46318;52.716;6.444;2023-05-28T14:30:22;7.07;;;4.00;;
60472;SDS011;46318;52.716;6.444;2023-05-28T14:32:49;6.85;;;4.13;;
60472;SDS011;46318;52.716;6.444;2023-05-28T14:35:15;7.38;;;3.72;;
60472;SDS011;46318;52.716;6.444;2023-05-28T14:37:41;10.45;;;4.55;;
60472;SDS011;46318;52.716;6.444;2023-05-28T14:40:07;6.60;;;3.65;;
60472;SDS011;46318;52.716;6.444;2023-05-28T14:42:36;9.05;;;3.97;;
60472;SDS011;46318;52.716;6.444;2023-05-28T14:45:02;8.73;;;3.92;;
60472;SDS011;46318;52.716;6.444;2023-05-28T14:47:28;7.25;;;3.88;;
60472;SDS011;46318;52.716;6.444;2023-05-28T14:49:55;9.20;;;3.90;;
60472;SDS011;46318;52.716;6.444;2023-05-28T14:52:28;6.88;;;3.47;;
60472;SDS011;46318;52.716;6.444;2023-05-28T14:54:55;8.18;;;4.07;;
60472;SDS011;46318;52.716;6.444;2023-05-28T14:57:23;8.57;;;3.80;;
60472;SDS011;46318;52.716;6.444;2023-05-28T14:59:52;7.40;;;3.83;;